Tiempo atmosférico en la estación meteorológica de Cubillas de Rueda, León (916 m.)



Fecha
DESCASC
Temp. máxima en grados centígrados (hora)
DESCASC
Temp. mínima en grados centígrados (hora)
DESCASC
Temp. media en grados centígrados
DESCASC
Racha de viento máxima en m/sg (hora)
DESCASC
Velocidad máxima media en intervalos de 10 minutos(hora)
DESCASC
Precipitaciones diarias en mm
DESCASC
Precipitaciones de 00:00 a 06:00 en mm
DESCASC
Precipitaciones de 06:00 a 12:00 en mm
DESCASC
Precipitaciones de 12:00 a 18:00 en mm
DESCASC
Precipitaciones de 18:00 a 24:00 en mm
DESCASC
22-01-2020 8 (13:50) 1.8 (22:30) 4.9 10.83 (02:30) 7.78 (01:00) 0.2 0 0.2 0 0
21-01-2020 8.7 (14:10) -1.8 (04:50) 3.4 14.17 (15:30) 10.83 (15:40) 0.2 0 0 0.2 0
20-01-2020 4.2 (13:20) -1.5 (08:00) 1.3 14.17 (05:30) 9.44 (05:30) 0 0 0 0 0
19-01-2020 5.4 (13:50) -1.8 (-00:0) 1.8 20.28 (16:10) 14.44 (16:50) 0.2 0 0 0.2 0
18-01-2020 6.4 (17:20) -0.6 (-00:0) 2.9 7.22 (13:20) 3.89 (13:00) 3.8 0 1.4 2.4 0
17-01-2020 7.6 (14:00) 0.7 (00:00) 4.1 9.72 (15:00) 5.83 (15:10) 2.8 2.6 0.2 0 0
16-01-2020 10.6 (14:20) 5.8 (00:00) 8.2 13.89 (14:30) 8.33 (14:30) 1.2 0.2 0.8 0 0.2
15-01-2020 9.5 (16:50) 4.6 (00:00) 7 12.5 (03:00) 7.5 (03:00) 1 0.2 0 0 0.8
14-01-2020 5.9 (17:10) -0.8 (-00:0) 2.6 10.56 (19:30) 5.83 (19:30) 0.4 0 0.2 0 0.2
13-01-2020 -0.8 (23:30) -7 (-00:0) -3.9 3.89 (15:20) 2.22 (14:10) 0.2 0 0 0.2 0
12-01-2020 1.3 (15:00) -5 (-00:0) -1.9 2.78 (14:40) 1.94 (14:30) 0 0 0 0 0
11-01-2020 7.6 (16:00) -5.5 (-00:0) 1 4.72 (16:00) 2.5 (16:10) 0 0 0 0 0
10-01-2020 8.5 (15:10) -3.7 (-00:0) 2.4 7.22 (14:50) 4.17 (14:20) 0 0 0 0 0
09-01-2020 9.5 (13:50) -2.2 (-00:0) 3.6 10 (19:00) 5 (19:00) 0.2 0 0 0.2 0
08-01-2020 -- (--) -- (--) -- -- (--) -- (--) -- -- 0 0 0
07-01-2020 8.3 (14:00) -5.7 (-00:0) 1.3 3.33 (13:10) 2.22 (13:10) 0.2 0 0.2 0 0
06-01-2020 -0.1 (14:30) -5.9 (-00:0) -3 3.89 (13:50) 2.5 (13:40) 0 0 0 0 0
05-01-2020 13.1 (15:10) -4.7 (-00:0) 4.2 3.89 (15:10) 2.5 (11:50) 0 0 0 0 0
04-01-2020 2.6 (16:10) -3.3 (-00:0) -0.4 2.22 (01:30) 1.39 (00:40) 0.2 0 0.2 0 0
03-01-2020 7.2 (16:10) -2.4 (-00:0) 2.4 4.17 (16:40) 2.5 (16:50) 0.2 0 0.2 0 0
02-01-2020 8.4 (14:50) -5.1 (-00:0) 1.6 3.06 (14:00) 1.94 (14:00) 0 0 0 0 0
01-01-2020 9.5 (16:20) -5.6 (-00:0) 2 3.33 (15:00) 1.94 (15:00) 0 0 0 0 0
31-12-2019 13.1 (15:30) -3.7 (-00:0) 4.7 3.06 (10:40) 2.22 (01:00) 0 0 0 0 0
30-12-2019 -- (--) -- (--) -- -- (--) -- (--) -- 0 0 -- 0
29-12-2019 15 (15:20) -2.6 (-00:0) 6.2 3.06 (07:30) 2.22 (23:59) 0 0 0 0 0
28-12-2019 16 (15:20) -2.5 (-00:0) 6.8 4.17 (07:20) 2.5 (02:10) 0 0 0 0 0
27-12-2019 12.7 (16:40) -5.5 (-00:0) 3.6 3.06 (11:20) 1.94 (11:20) 0 0 0 0 0
26-12-2019 6.7 (15:30) 0.4 (00:00) 3.5 5 (14:10) 3.06 (14:10) 0 0 0 0 0
25-12-2019 12.3 (15:10) 2.5 (00:00) 7.4 4.17 (16:20) 2.78 (16:20) 0 0 0 0 0
24-12-2019 9.1 (15:30) 5.6 (00:00) 7.4 4.72 (07:50) 2.78 (07:50) 0 0 0 0 0

Gráficas

Temp. máximas Temp. mínimas Temp. medias Precipitaciones Rachas de viento máximas Velocidades máximas media en intervalos de 10 minutos

Datos horarios

Fecha y hora oficial Temperatura (ºC) Velocidad del viento (km/h) Dirección del viento Racha (km/h) Dirección de racha Precipitación (mm) Presión (hPa) Tendencia (hPa) Humedad (%)
2020-01-22 23:00:00 2.2 10 Este 18 Este 0 -- -- 86
2020-01-22 22:00:00 2 9 Este 19 Este 0 -- -- 87
2020-01-22 21:00:00 2.5 9 Este 21 Este 0 -- -- 84
2020-01-22 20:00:00 2.5 8 Este 16 Este 0 -- -- 83
2020-01-22 19:00:00 2.9 6 Este 8 Este 0 -- -- 76
2020-01-22 18:00:00 6.1 8 Este 15 Este 0 -- -- 68
2020-01-22 17:00:00 7.2 8 Este 18 Sudeste 0 -- -- 67
2020-01-22 16:00:00 7.6 10 Nordeste 22 Nordeste 0 -- -- 68
2020-01-22 15:00:00 7.9 14 Este 23 Este 0 -- -- 67
2020-01-22 14:00:00 7.9 12 Este 25 Este 0 -- -- 67
2020-01-22 13:00:00 7.5 13 Este 23 Nordeste 0 -- -- 72
2020-01-22 12:00:00 6.4 14 Nordeste 22 Nordeste 0 -- -- 77
2020-01-22 11:00:00 5.3 14 Nordeste 26 Este 0 -- -- 80
2020-01-22 10:00:00 4.7 17 Este 29 Este 0 -- -- 84
2020-01-22 09:00:00 4.6 10 Este 17 Este 0.2 -- -- 82
2020-01-22 08:00:00 4.2 5 Nordeste 13 Nordeste 0 -- -- 80
2020-01-22 07:00:00 5.1 10 Nordeste 21 Nordeste 0 -- -- 72
2020-01-22 06:00:00 3.7 12 Este 19 Este 0 -- -- 78
2020-01-22 05:00:00 4.2 12 Nordeste 28 Nordeste 0 -- -- 76
2020-01-22 04:00:00 5.6 20 Nordeste 29 Nordeste 0 -- -- 68
2020-01-22 03:00:00 5.6 21 Nordeste 39 Este 0 -- -- 68
2020-01-22 02:00:00 5.1 17 Nordeste 36 Nordeste 0 -- -- 69
2020-01-22 01:00:00 5.6 28 Nordeste 37 Nordeste 0 -- -- 65
2020-01-22 00:00:00 5.3 21 Nordeste 32 Nordeste 0 -- -- 65
2020-01-21 23:00:00 4.5 15 Nordeste 27 Nordeste 0 -- -- 65
2020-01-21 22:00:00 4.6 23 Nordeste 32 Nordeste 0 -- -- 63
2020-01-21 21:00:00 4.7 23 Nordeste 38 Nordeste 0 -- -- 64
2020-01-21 20:00:00 4.4 11 Nordeste 24 Nordeste 0 -- -- 67
2020-01-21 19:00:00 4.6 20 Nordeste 39 Nordeste 0 -- -- 66
2020-01-21 18:00:00 4.4 23 Nordeste 36 Nordeste 0.2 -- -- 69
2020-01-21 17:00:00 4.9 22 Nordeste 41 Nordeste 0 -- -- 73
2020-01-21 16:00:00 5.7 31 Nordeste 51 Nordeste 0 -- -- 70
2020-01-21 15:00:00 7.3 33 Nordeste 47 Nordeste 0 -- -- 57
2020-01-21 14:00:00 8.4 30 Nordeste 41 Nordeste 0 -- -- 54
2020-01-21 13:00:00 5.4 21 Nordeste 33 Nordeste 0 -- -- 62
2020-01-21 12:00:00 5.7 8 Este 23 Este 0 -- -- 60
2020-01-21 11:00:00 4.1 15 Nordeste 35 Nordeste 0 -- -- 64
2020-01-21 10:00:00 3.2 15 Nordeste 36 Nordeste 0 -- -- 65
2020-01-21 09:00:00 2 23 Nordeste 31 Nordeste 0 -- -- 67
2020-01-21 08:00:00 2.1 19 Nordeste 30 Nordeste 0 -- -- 67
2020-01-21 07:00:00 2 21 Nordeste 38 Nordeste 0 -- -- 69
2020-01-21 06:00:00 0.6 10 Este 17 Nordeste 0 -- -- 76
2020-01-21 05:00:00 -1.7 0 Calma 18 Nordeste 0 -- -- 82
2020-01-21 04:00:00 0.3 10 Nordeste 17 Nordeste 0 -- -- 77
2020-01-21 03:00:00 -0.7 8 Este 21 Nordeste 0 -- -- 79
2020-01-21 02:00:00 -0.3 16 Nordeste 23 Nordeste 0 -- -- 78
2020-01-21 01:00:00 0.6 17 Nordeste 27 Nordeste 0 -- -- 74
2020-01-21 00:00:00 0.7 18 Nordeste 24 Nordeste 0 -- -- 71
2020-01-20 23:00:00 0.6 13 Este 29 Este 0 -- -- 71
2020-01-20 22:00:00 1.6 20 Nordeste 30 Este 0 -- -- 63
2020-01-20 21:00:00 1.9 18 Este 31 Este 0 -- -- 61
2020-01-20 20:00:00 1.1 10 Nordeste 33 Nordeste 0 -- -- 62
2020-01-20 19:00:00 1.8 22 Nordeste 33 Nordeste 0 -- -- 56
2020-01-20 18:00:00 1.9 19 Nordeste 36 Este 0 -- -- 50
2020-01-20 17:00:00 3.1 21 Nordeste 32 Nordeste 0 -- -- 49
2020-01-20 16:00:00 3.3 21 Nordeste 33 Nordeste 0 -- -- 45
2020-01-20 15:00:00 4.2 21 Nordeste 38 Este 0 -- -- 42
2020-01-20 14:00:00 3.5 30 Nordeste 42 Nordeste 0 -- -- 37
2020-01-20 13:00:00 3.6 17 Nordeste 46 Nordeste 0 -- -- 39
2020-01-20 12:00:00 2.8 30 Nordeste 48 Nordeste 0 -- -- 41
2020-01-20 11:00:00 1.8 33 Nordeste 49 Nordeste 0 -- -- 51
2020-01-20 10:00:00 0.7 10 Sudeste 32 Nordeste 0 -- -- 61
2020-01-20 09:00:00 0.2 22 Nordeste 40 Nordeste 0 -- -- 52
2020-01-20 08:00:00 -1.5 13 Este 34 Nordeste 0 -- -- 68
2020-01-20 07:00:00 0.1 21 Nordeste 47 Nordeste 0 -- -- 61
2020-01-20 06:00:00 0.6 32 Nordeste 51 Nordeste 0 -- -- 57
2020-01-20 05:00:00 0.9 22 Nordeste 36 Norte 0 -- -- 56
2020-01-20 04:00:00 0.6 21 Nordeste 41 Nordeste 0 -- -- 60
2020-01-20 03:00:00 0.7 26 Norte 48 Norte 0 -- -- 57
2020-01-20 02:00:00 0.9 33 Nordeste 48 Nordeste 0 -- -- 56
2020-01-20 01:00:00 0.9 28 Norte 49 Nordeste 0 -- -- 58
2020-01-20 00:00:00 1 20 Nordeste 53 Nordeste 0 -- -- 58
2020-01-19 23:00:00 1 22 Nordeste 61 Nordeste 0 -- -- 61
2020-01-19 22:00:00 1.1 37 Nordeste 53 Nordeste 0 -- -- 61
2020-01-19 21:00:00 0.9 32 Nordeste 52 Nordeste 0 -- -- 67
2020-01-19 20:00:00 1.6 29 Nordeste 54 Nordeste 0 -- -- 53
2020-01-19 19:00:00 2 41 Nordeste 69 Nordeste 0 -- -- 48
2020-01-19 18:00:00 2.6 41 Nordeste 72 Nordeste 0 -- -- 48
2020-01-19 17:00:00 3.5 49 Nordeste 73 Nordeste 0 -- -- 45
2020-01-19 16:00:00 4.4 46 Nordeste 68 Nordeste 0 -- -- 51
2020-01-19 15:00:00 4.7 46 Nordeste 66 Nordeste 0.2 -- -- 55
2020-01-19 14:00:00 5.4 40 Norte 64 Norte 0 -- -- 50
2020-01-19 13:00:00 5.1 42 Nordeste 67 Norte 0 -- -- 59
2020-01-19 12:00:00 5.2 39 Nordeste 64 Nordeste 0 -- -- 55
2020-01-19 11:00:00 4.4 38 Nordeste 62 Nordeste 0 -- -- 56
2020-01-19 10:00:00 3.6 24 Norte 39 Norte 0 -- -- 72
2020-01-19 09:00:00 1.7 12 Nordeste 17 Nordeste 0 -- -- 89
2020-01-19 08:00:00 0.7 0 Calma 11 Nordeste 0 -- -- 96
2020-01-19 07:00:00 -0.1 3 Nordeste 9 Nordeste 0 -- -- 98
2020-01-19 06:00:00 -0.5 0 Calma -- -- 0 -- -- 99
2020-01-19 05:00:00 -1 0 Calma -- -- 0 -- -- 98
2020-01-19 04:00:00 -1.2 0 Calma -- -- 0 -- -- 99
2020-01-19 03:00:00 -1.1 0 Calma -- -- 0 -- -- 98
2020-01-19 02:00:00 -1.5 0 Calma -- -- 0 -- -- 98
2020-01-19 01:00:00 -1.1 0 Calma 8 Este 0 -- -- 97
2020-01-19 00:00:00 -0.6 3 Este 4 Nordeste 0 -- -- 96
2020-01-18 23:00:00 0.5 0 Calma 8 Este 0 -- -- 96
2020-01-18 22:00:00 0.1 4 Este 10 Este 0 -- -- 96
2020-01-18 21:00:00 1.2 3 Sudeste 12 Oeste 0 -- -- 91
2020-01-18 20:00:00 2.4 3 Oeste 12 Sudoeste 0 -- -- 93
2020-01-18 19:00:00 3.7 5 Sudoeste 10 Sudoeste 0 -- -- 96
2020-01-18 18:00:00 5.6 5 Noroeste 17 Noroeste 0.2 -- -- 96
2020-01-18 17:00:00 6 7 Noroeste 15 Noroeste 2 -- -- 98
2020-01-18 16:00:00 5.9 0 Calma 17 Sudoeste 0 -- -- 98
2020-01-18 15:00:00 5.8 10 Sudoeste 19 Sudoeste 0.2 -- -- 98
2020-01-18 14:00:00 5.7 10 Sudoeste 26 Sur 0 -- -- 98
2020-01-18 13:00:00 4.9 14 Sur 24 Sur 0 -- -- 98
2020-01-18 12:00:00 3.9 4 Sudeste 12 Sur 0.2 -- -- 97
2020-01-18 11:00:00 3.1 4 Sudeste 8 Sudeste 0.6 -- -- 96
2020-01-18 10:00:00 2.6 2 Este 4 Sudeste 0.4 -- -- 95
2020-01-18 09:00:00 2.1 3 Este 5 Nordeste 0.2 -- -- 93
2020-01-18 08:00:00 2 4 Nordeste 6 Nordeste 0 -- -- 89
2020-01-18 07:00:00 1.6 3 Nordeste 7 Este 0 -- -- 90
2020-01-18 06:00:00 1.8 5 Nordeste 6 Nordeste 0 -- -- 91
2020-01-18 05:00:00 1.6 3 Nordeste 6 Norte 0 -- -- 92
2020-01-18 04:00:00 1.4 3 Norte 5 Nordeste 0 -- -- 92
2020-01-18 03:00:00 1.3 4 Nordeste 5 Nordeste 0 -- -- 92
2020-01-18 02:00:00 1 0 Calma 4 Sudeste 0 -- -- 91
2020-01-18 01:00:00 0.9 2 Sudeste 17 Nordeste 0 -- -- 91
2020-01-18 00:00:00 0.7 3 Este 6 Nordeste 0 -- -- 90
2020-01-17 23:00:00 1.2 0 Calma 8 Este 0 -- -- 89
2020-01-17 22:00:00 1.1 4 Este 8 Este 0 -- -- 89
2020-01-17 21:00:00 1.9 2 Sur 6 Sudoeste 0 -- -- 84
2020-01-17 20:00:00 2.6 4 Sur 7 Sudoeste 0 -- -- 79
2020-01-17 19:00:00 3.8 5 Oeste 14 Oeste 0 -- -- 74
2020-01-17 18:00:00 4.8 6 Oeste 21 Oeste 0 -- -- 69
2020-01-17 17:00:00 5.8 13 Oeste 28 Oeste 0 -- -- 64
2020-01-17 16:00:00 6.2 17 Oeste 31 Oeste 0 -- -- 62
2020-01-17 15:00:00 6.6 20 Oeste 35 Sudoeste 0 -- -- 65
2020-01-17 14:00:00 7.6 14 Oeste 33 Oeste 0 -- -- 55
2020-01-17 13:00:00 6.8 15 Oeste 32 Oeste 0 -- -- 66
2020-01-17 12:00:00 5.3 17 Oeste 31 Sudoeste 0 -- -- 81
2020-01-17 11:00:00 4.1 11 Oeste 25 Oeste 0 -- -- 88
2020-01-17 10:00:00 2.8 11 Oeste 20 Oeste 0 -- -- 93
2020-01-17 09:00:00 1.8 8 Sudoeste 18 Sudoeste 0 -- -- 93
2020-01-17 08:00:00 2.8 10 Oeste 22 Oeste 0.2 -- -- 96
2020-01-17 07:00:00 2.6 5 Oeste 8 Oeste 0 -- -- 96
2020-01-17 06:00:00 3.8 5 Sudoeste 17 Oeste 0.2 -- -- 96
2020-01-17 05:00:00 4.3 10 Sudoeste 19 Sudoeste 0 -- -- 96
2020-01-17 04:00:00 5.1 14 Sudoeste 31 Sudoeste 2.4 -- -- 96
2020-01-17 03:00:00 5.6 13 Oeste 31 Sudoeste 0 -- -- 95
2020-01-17 02:00:00 5.8 14 Sudoeste 22 Sur 0 -- -- 92
2020-01-17 01:00:00 5.9 7 Sudoeste 27 Oeste 0 -- -- 92
2020-01-17 00:00:00 5.9 14 Sudoeste 33 Sudoeste 0 -- -- 93
2020-01-16 23:00:00 6.6 18 Sudoeste 36 Sur 0 -- -- 92
2020-01-16 22:00:00 6.4 14 Sudoeste 37 Sudoeste 0.2 -- -- 89
2020-01-16 21:00:00 7.4 21 Sudoeste 39 Sudoeste 0 -- -- 77
2020-01-16 20:00:00 7.3 16 Sur 38 Sudoeste 0 -- -- 78
2020-01-16 19:00:00 7.6 15 Sudoeste 29 Sudoeste 0 -- -- 76
2020-01-16 18:00:00 7.8 18 Sur 41 Sur 0 -- -- 76
2020-01-16 17:00:00 8.6 24 Sudoeste 49 Sur 0 -- -- 72
2020-01-16 16:00:00 9.3 23 Sudoeste 39 Sudoeste 0 -- -- 72
2020-01-16 15:00:00 10 26 Sudoeste 50 Sudoeste 0 -- -- 71
2020-01-16 14:00:00 10 20 Sudoeste 44 Sudoeste 0 -- -- 76
2020-01-16 13:00:00 9.2 22 Sudoeste 41 Sudoeste 0 -- -- 86
2020-01-16 12:00:00 8 21 Sur 42 Sur 0 -- -- 95
2020-01-16 11:00:00 7.3 21 Sur 36 Sur 0.8 -- -- 97
2020-01-16 10:00:00 7.1 17 Sur 41 Sur 0 -- -- 95
2020-01-16 09:00:00 7 25 Sur 41 Sur 0 -- -- 96
2020-01-16 08:00:00 7 18 Sur 36 Sudoeste 0 -- -- 96
2020-01-16 07:00:00 7.1 12 Sur 31 Sur 0 -- -- 96
2020-01-16 06:00:00 7.2 14 Sudoeste 26 Sur 0 -- -- 97
2020-01-16 05:00:00 7.2 14 Sur 25 Sudoeste 0 -- -- 97
2020-01-16 04:00:00 7.3 8 Sudoeste 23 Sudoeste 0 -- -- 97
2020-01-16 03:00:00 7.5 15 Sur 31 Sudoeste 0 -- -- 96
2020-01-16 02:00:00 7.4 11 Sur 21 Sur 0.2 -- -- 97
2020-01-16 01:00:00 7.3 8 Sur 19 Sur 0 -- -- 97
2020-01-16 00:00:00 7.2 10 Sur 21 Sur 0.8 -- -- 97
2020-01-15 23:00:00 7.3 12 Sur 23 Sur 0 -- -- 96
2020-01-15 22:00:00 6.9 9 Sur 17 Sur 0 -- -- 96
2020-01-15 21:00:00 6.1 11 Sudeste 18 Sudeste 0 -- -- 96
2020-01-15 20:00:00 6.1 5 Sudeste 12 Sur 0 -- -- 90
2020-01-15 19:00:00 7.3 6 Sudeste 9 Sur 0 -- -- 89
2020-01-15 18:00:00 9.2 6 Sur 18 Sudoeste 0 -- -- 83
2020-01-15 17:00:00 9.3 10 Sudoeste 23 Sur 0 -- -- 80
2020-01-15 16:00:00 7.9 13 Sudoeste 29 Sudoeste 0 -- -- 86
2020-01-15 15:00:00 8.3 13 Sudoeste 32 Sudoeste 0 -- -- 83
2020-01-15 14:00:00 8.6 14 Sudoeste 31 Sudoeste 0 -- -- 82
2020-01-15 13:00:00 7.5 17 Sudoeste 37 Sudoeste 0 -- -- 81
2020-01-15 12:00:00 7.1 18 Sudoeste 37 Sudoeste 0 -- -- 86
2020-01-15 11:00:00 6.5 13 Sudoeste 37 Sudoeste 0 -- -- 95
2020-01-15 10:00:00 5.6 22 Sur 40 Sur 0 -- -- 95
2020-01-15 09:00:00 5.5 16 Sur 40 Sur 0 -- -- 93
2020-01-15 08:00:00 5.5 21 Sur 37 Sur 0 -- -- 93
2020-01-15 07:00:00 5.8 21 Sur 37 Sur 0 -- -- 93
2020-01-15 06:00:00 5.8 16 Sur 40 Sur 0 -- -- 92
2020-01-15 05:00:00 5.7 18 Sur 40 Sur 0 -- -- 95
2020-01-15 04:00:00 5.5 21 Sur 45 Sudoeste 0 -- -- 96
2020-01-15 03:00:00 5.4 27 Sudoeste 45 Sur 0.2 -- -- 96
2020-01-15 02:00:00 4.9 18 Sur 35 Sudoeste 0 -- -- 97
2020-01-15 01:00:00 4.7 15 Sudoeste 45 Sur 0 -- -- 96
2020-01-15 00:00:00 4.6 21 Sur 36 Sur 0 -- -- 95
2020-01-14 23:00:00 4.6 19 Sur 33 Sur 0.2 -- -- 95
2020-01-14 22:00:00 4.8 7 Sur 24 Sudoeste 0 -- -- 92
2020-01-14 21:00:00 4.6 8 Sur 31 Sur 0 -- -- 91
2020-01-14 20:00:00 5.1 15 Sudoeste 38 Sudoeste 0 -- -- 90
2020-01-14 19:00:00 5.6 16 Sur 29 Sudoeste 0 -- -- 90
2020-01-14 18:00:00 5.9 13 Sur 24 Sur 0 -- -- 88
2020-01-14 17:00:00 5.8 12 Sur 26 Sur 0 -- -- 89
2020-01-14 16:00:00 5.5 15 Sur 30 Sudoeste 0 -- -- 89
2020-01-14 15:00:00 5.1 14 Sur 32 Sudoeste 0 -- -- 91
2020-01-14 14:00:00 4.8 14 Sur 33 Sudoeste 0 -- -- 91
2020-01-14 13:00:00 4.3 11 Sudoeste 22 Sudoeste 0 -- -- 96
2020-01-14 12:00:00 2.6 10 Sur 21 Sur 0 -- -- 98
2020-01-14 11:00:00 2.1 8 Sur 19 Sur 0 -- -- 99
2020-01-14 10:00:00 1.7 8 Sudeste 15 Sudeste 0 -- -- 99
2020-01-14 09:00:00 1.4 6 Sudeste 14 Este 0 -- -- 99
2020-01-14 08:00:00 1.1 0 Calma 7 Este 0 -- -- 99
2020-01-14 07:00:00 0.8 6 Sudeste 12 Sudeste 0.2 -- -- 99
2020-01-14 06:00:00 0.5 3 Sudeste 7 Sudeste 0 -- -- 99
2020-01-14 05:00:00 0.3 3 Sudeste 6 Este 0 -- -- 99
2020-01-14 04:00:00 0.2 0 Calma 4 Este 0 -- -- 99
2020-01-14 03:00:00 0 3 Este 5 Este 0 -- -- 99
2020-01-14 02:00:00 -0.2 0 Calma 5 Sudeste 0 -- -- 99
2020-01-14 01:00:00 -0.5 2 Este 5 Este 0 -- -- 98
2020-01-14 00:00:00 -0.8 0 Calma 4 Nordeste 0 -- -- 98
2020-01-13 23:00:00 -0.9 3 Este 8 Nordeste 0 -- -- 98
2020-01-13 22:00:00 -1.1 4 Norte 10 Este 0 -- -- 97
2020-01-13 21:00:00 -1.3 6 Nordeste 9 Norte 0 -- -- 97
2020-01-13 20:00:00 -1.3 0 Calma 3 Sudeste 0 -- -- 97
2020-01-13 19:00:00 -1.3 2 Sur 6 Sur 0 -- -- 97
2020-01-13 18:00:00 -1.5 0 Calma 5 Noroeste 0 -- -- 97
2020-01-13 17:00:00 -1.6 3 Noroeste 12 Sudoeste 0 -- -- 97
2020-01-13 16:00:00 -1.6 6 Sudoeste 14 Sur 0 -- -- 98
2020-01-13 15:00:00 -1.9 6 Sur 13 Sur 0.2 -- -- 98
2020-01-13 14:00:00 -2.3 6 Sur 12 Sur 0 -- -- 99
2020-01-13 13:00:00 -2.9 5 Sur 10 Sur 0 -- -- 98
2020-01-13 12:00:00 -4 4 Sur 6 Sudeste 0 -- -- 97
2020-01-13 11:00:00 -4.9 0 Calma -- -- 0 -- -- 97
2020-01-13 10:00:00 -6 0 Calma -- -- 0 -- -- 96
2020-01-13 09:00:00 -6.9 0 Calma -- -- 0 -- -- 95
2020-01-13 08:00:00 -6.8 0 Calma -- -- 0 -- -- 94
2020-01-13 07:00:00 -6.5 0 Calma -- -- 0 -- -- 94
2020-01-13 06:00:00 -6 0 Calma -- -- 0 -- -- 95
2020-01-13 05:00:00 -6.5 0 Calma -- -- 0 -- -- 95
2020-01-13 04:00:00 -6.7 0 Calma -- -- 0 -- -- 95
2020-01-13 03:00:00 -6.2 0 Calma -- -- 0 -- -- 95
2020-01-13 02:00:00 -5.6 0 Calma -- -- 0 -- -- 95
2020-01-13 01:00:00 -5.6 0 Calma -- -- 0 -- -- 95
2020-01-13 00:00:00 -5 0 Calma 5 Nordeste 0 -- -- 95
2020-01-12 23:00:00 -3.7 4 Nordeste 5 Norte 0 -- -- 98
2020-01-12 22:00:00 -2.9 0 Calma 4 Nordeste 0 -- -- 98
2020-01-12 21:00:00 -2 0 Calma 5 Este 0 -- -- 98
2020-01-12 20:00:00 -1.6 4 Este 6 Nordeste 0 -- -- 97
2020-01-12 19:00:00 -0.5 0 Calma 4 Oeste 0 -- -- 98
2020-01-12 18:00:00 0.1 0 Calma 6 Sudoeste 0 -- -- 97
2020-01-12 17:00:00 0.6 4 Sudoeste 10 Sudoeste 0 -- -- 97
2020-01-12 16:00:00 1.2 5 Sudoeste 10 Sudoeste 0 -- -- 97
2020-01-12 15:00:00 1.3 5 Sudoeste 10 Sudoeste 0 -- -- 98
2020-01-12 14:00:00 0.4 5 Sudoeste 8 Sudoeste 0 -- -- 99
2020-01-12 13:00:00 -0.7 4 Sudoeste 6 Sudoeste 0 -- -- 98
2020-01-12 12:00:00 -2.2 0 Calma -- -- 0 -- -- 97
2020-01-12 11:00:00 -2.6 0 Calma 4 Nordeste 0 -- -- 98
2020-01-12 10:00:00 -4.4 3 Nordeste 5 Nordeste 0 -- -- 97
2020-01-12 09:00:00 -4.1 0 Calma 4 Noroeste 0 -- -- 97
2020-01-12 08:00:00 -3.6 0 Calma 4 Norte 0 -- -- 97
2020-01-12 07:00:00 -3.4 2 Norte 4 Nordeste 0 -- -- 97
2020-01-12 06:00:00 -3.3 0 Calma 3 Norte 0 -- -- 97
2020-01-12 05:00:00 -3.4 0 Calma 6 Sur 0 -- -- 96
2020-01-12 04:00:00 -4.3 3 Sudoeste 7 Sudoeste 0 -- -- 95
2020-01-12 03:00:00 -4.3 3 Nordeste 5 Este 0 -- -- 94
2020-01-12 02:00:00 -3.8 0 Calma 5 Nordeste 0 -- -- 95
2020-01-12 01:00:00 -3.6 3 Nordeste 4 Nordeste 0 -- -- 94
2020-01-12 00:00:00 -3.4 2 Nordeste 4 Nordeste 0 -- -- 93
2020-01-11 23:00:00 -3.4 2 Nordeste 3 Este 0 -- -- 92
2020-01-11 22:00:00 -2.6 2 Nordeste 5 Nordeste 0 -- -- 92
2020-01-11 21:00:00 -1.9 2 Este 3 Nordeste 0 -- -- 91
2020-01-11 20:00:00 -1.1 2 Este 2 Este 0 -- -- 88
2020-01-11 19:00:00 1.4 2 Oeste 5 Oeste 0 -- -- 80
2020-01-11 18:00:00 5.5 4 Oeste 12 Oeste 0 -- -- 70
2020-01-11 17:00:00 7.1 7 Oeste 16 Sudoeste 0 -- -- 66
2020-01-11 16:00:00 7.6 8 Sudoeste 17 Sudoeste 0 -- -- 63
2020-01-11 15:00:00 7.1 8 Sudoeste 14 Sudoeste 0 -- -- 68
2020-01-11 14:00:00 6.1 5 Sudoeste 13 Oeste 0 -- -- 72
2020-01-11 13:00:00 4.9 5 Sudoeste 10 Oeste 0 -- -- 76
2020-01-11 12:00:00 3 0 Calma 5 Nordeste 0 -- -- 85
2020-01-11 11:00:00 -0.1 2 Norte 6 Nordeste 0 -- -- 92
2020-01-11 10:00:00 -3.1 2 Nordeste 6 Este 0 -- -- 96
2020-01-11 09:00:00 -5.3 2 Nordeste 5 Nordeste 0 -- -- 93
2020-01-11 08:00:00 -5.3 3 Este 6 Nordeste 0 -- -- 95
2020-01-11 07:00:00 -5.2 4 Nordeste 6 Nordeste 0 -- -- 95
2020-01-11 06:00:00 -5 3 Este 5 Nordeste 0 -- -- 93
2020-01-11 05:00:00 -4.2 3 Este 10 Nordeste 0 -- -- 94
2020-01-11 04:00:00 -4.1 5 Nordeste 7 Nordeste 0 -- -- 95
2020-01-11 03:00:00 -4.1 3 Nordeste 9 Este 0 -- -- 94
2020-01-11 02:00:00 -3.1 4 Nordeste 7 Nordeste 0 -- -- 92
2020-01-11 01:00:00 -2.8 6 Nordeste 10 Nordeste 0 -- -- 96
2020-01-11 00:00:00 -3.2 3 Nordeste 8 Nordeste 0 -- -- 93
2020-01-10 23:00:00 -3.1 3 Nordeste 5 Nordeste 0 -- -- 91
2020-01-10 22:00:00 -2 2 Nordeste 8 Este 0 -- -- 88
2020-01-10 21:00:00 0.7 6 Nordeste 10 Nordeste 0 -- -- 85
2020-01-10 20:00:00 0.1 5 Este 9 Este 0 -- -- 87
2020-01-10 19:00:00 2.2 0 Calma 10 Norte 0 -- -- 74
2020-01-10 18:00:00 6.1 6 Norte 17 Norte 0 -- -- 64
2020-01-10 17:00:00 7.4 11 Norte 23 Norte 0 -- -- 60
2020-01-10 16:00:00 7.4 11 Norte 21 Norte 0 -- -- 59
2020-01-10 15:00:00 8.4 11 Noroeste 26 Norte 0 -- -- 57
2020-01-10 14:00:00 7.5 9 Norte 19 Nordeste 0 -- -- 62
2020-01-10 13:00:00 6.2 10 Nordeste 18 Nordeste 0 -- -- 67
2020-01-10 12:00:00 5 6 Norte 12 Norte 0 -- -- 75
2020-01-10 11:00:00 2 3 Nordeste 5 Nordeste 0 -- -- 84
2020-01-10 10:00:00 -0.4 2 Nordeste 6 Norte 0 -- -- 93
2020-01-10 09:00:00 -1.3 2 Noroeste 6 Noroeste 0 -- -- 94
2020-01-10 08:00:00 -1.8 3 Este 8 Este 0 -- -- 95
2020-01-10 07:00:00 -1.7 0 Calma 8 Nordeste 0 -- -- 94
2020-01-10 06:00:00 -3.3 2 Sudeste 6 Noroeste 0 -- -- 96
2020-01-10 05:00:00 -3.6 2 Sudeste 5 Este 0 -- -- 93
2020-01-10 04:00:00 -2.7 2 Este 6 Sudeste 0 -- -- 93
2020-01-10 03:00:00 -1.2 4 Sur 6 Sur 0 -- -- 91
2020-01-10 02:00:00 -0.6 5 Sur 9 Sur 0 -- -- 89
2020-01-10 01:00:00 -1.2 6 Oeste 12 Oeste 0 -- -- 91
2020-01-10 00:00:00 -0.8 5 Sudeste 8 Nordeste 0 -- -- 89
2020-01-09 23:00:00 1.3 2 Nordeste 14 Noroeste 0 -- -- 81
2020-01-09 22:00:00 3 3 Oeste 12 Oeste 0 -- -- 81
2020-01-09 21:00:00 4.8 10 Oeste 27 Sudoeste 0 -- -- 72
2020-01-09 20:00:00 4.4 8 Sudoeste 27 Oeste 0 -- -- 80
2020-01-09 19:00:00 5.8 18 Oeste 36 Oeste 0 -- -- 79
2020-01-09 18:00:00 5.8 12 Sudoeste 20 Oeste 0.2 -- -- 95
2020-01-09 17:00:00 6.4 3 Sur 15 Sur 0 -- -- 93
2020-01-09 16:00:00 5.7 6 Sur 17 Sur 0 -- -- 90
2020-01-09 15:00:00 7.9 11 Sur 21 Sudeste 0 -- -- 80
2020-01-09 14:00:00 9.3 13 Sur 20 Sur 0 -- -- 68
2020-01-09 13:00:00 8.9 9 Sudoeste 16 Sudoeste 0 -- -- 70
2020-01-09 12:00:00 8.3 4 Sudoeste 8 Sur 0 -- -- 71
2020-01-09 11:00:00 5.1 3 Oeste 6 Sudoeste 0 -- -- 80
2020-01-09 10:00:00 2.5 4 Sudeste 5 Este 0 -- -- 89
2020-01-09 09:00:00 0.8 0 Calma 8 Sudeste 0 -- -- 91
2020-01-09 08:00:00 0 2 Norte 5 Este 0 -- -- 94
2020-01-09 07:00:00 -1.7 3 Nordeste 5 Este 0 -- -- 92
2020-01-09 06:00:00 -1.9 3 Este 5 Nordeste 0 -- -- 89
2020-01-09 05:00:00 -1.2 3 Nordeste 6 Norte 0 -- -- 88
2020-01-09 04:00:00 -1.2 5 Nordeste 6 Este 0 -- -- 90
2020-01-09 03:00:00 -1.1 2 Nordeste 5 Este 0 -- -- 85
2020-01-09 02:00:00 -0.8 5 Este 7 Este 0 -- -- 85
2020-01-09 01:00:00 0.2 3 Este 4 Este 0 -- -- 79
2020-01-09 00:00:00 1.9 2 Nordeste 6 Este 0 -- -- 82
2020-01-08 23:00:00 0.6 4 Nordeste 6 Nordeste 0 -- -- 81
2020-01-08 22:00:00 1.5 4 Nordeste 7 Este 0 -- -- 73
2020-01-08 21:00:00 1.4 0 Calma 3 Sudoeste 0 -- -- 77
2020-01-08 20:00:00 3.3 3 Oeste 5 Sur 0 -- -- 67
2020-01-08 19:00:00 5.5 3 Sudoeste 6 Oeste 0 -- -- 59
2020-01-08 18:00:00 10.7 4 Oeste 10 Oeste 0 -- -- 47
2020-01-08 17:00:00 12.8 6 Oeste 12 Sudoeste 0 -- -- 38
2020-01-08 16:00:00 13.4 7 Oeste 14 Sudoeste 0 -- -- 39
2020-01-08 15:00:00 13.1 9 Oeste 14 Sudoeste 0 -- -- 46
2020-01-08 14:00:00 13.2 8 Sudoeste 11 Sudoeste 0 -- -- 37
2020-01-08 13:00:00 11.5 4 Noroeste 10 Noroeste 0 -- -- 39
2020-01-08 12:00:00 7.9 2 Nordeste 6 Nordeste 0 -- -- 60
2020-01-08 11:00:00 3.6 3 Norte 8 Nordeste 0 -- -- 75
2020-01-08 10:00:00 -0.2 3 Este 6 Nordeste 0 -- -- 92
2020-01-08 09:00:00 -1.8 4 Nordeste 9 Nordeste 0 -- -- 90
2020-01-08 08:00:00 -2.8 6 Nordeste 8 Nordeste 0 -- -- 95
2020-01-08 07:00:00 -3.5 0 Calma 2 Este 0 -- -- 95
2020-01-08 06:00:00 -3.3 2 Este 5 Este 0 -- -- 95
2020-01-08 05:00:00 -3.2 0 Calma 2 Oeste 0 -- -- 94
2020-01-08 04:00:00 -- -- -- -- -- -- -- -- --
2020-01-08 03:00:00 -- -- -- -- -- -- -- -- --
2020-01-08 02:00:00 -2.9 0 Calma 0 Calma 0 -- -- 95
2020-01-08 01:00:00 -2.7 0 Calma 2 Sur 0 -- -- 94
2020-01-08 00:00:00 -2.3 0 Calma 2 Norte 0 -- -- 95
2020-01-07 23:00:00 -2.1 0 Calma 5 Este 0 -- -- 95
2020-01-07 22:00:00 -2.3 0 Calma 4 Este 0 -- -- 94
2020-01-07 21:00:00 -2 2 Nordeste 4 Nordeste 0 -- -- 94
2020-01-07 20:00:00 -1.7 0 Calma 3 Este 0 -- -- 93
2020-01-07 19:00:00 -1.1 2 Nordeste 4 Nordeste 0 -- -- 92
2020-01-07 18:00:00 -0.2 0 Calma 5 Sudoeste 0 -- -- 90
2020-01-07 17:00:00 0.8 2 Sudoeste 5 Sudoeste 0 -- -- 84
2020-01-07 16:00:00 5.7 3 Sudoeste 8 Oeste 0 -- -- 73
2020-01-07 15:00:00 7.7 5 Sudoeste 11 Sudoeste 0 -- -- 66
2020-01-07 14:00:00 8.3 6 Sudoeste 12 Sudoeste 0 -- -- 66
2020-01-07 13:00:00 5.6 4 Sudoeste 8 Sudoeste 0 -- -- 71
2020-01-07 12:00:00 1.7 3 Norte 5 Nordeste 0 -- -- 90
2020-01-07 11:00:00 -1.6 0 Calma 3 Norte 0.2 -- -- 99
2020-01-07 10:00:00 -4 0 Calma 3 Nordeste 0 -- -- 98
2020-01-07 09:00:00 -5.1 0 Calma 6 Nordeste 0 -- -- 97
2020-01-07 08:00:00 -5.5 0 Calma -- -- 0 -- -- 96
2020-01-07 07:00:00 -5.3 0 Calma -- -- 0 -- -- 95
2020-01-07 06:00:00 -4.5 0 Calma -- -- 0 -- -- 96
2020-01-07 05:00:00 -3.9 0 Calma -- -- 0 -- -- 98
2020-01-07 04:00:00 -5.1 0 Calma -- -- 0 -- -- 96
2020-01-07 03:00:00 -4.8 0 Calma -- -- 0 -- -- 97
2020-01-07 02:00:00 -4.8 0 Calma -- -- 0 -- -- 97
2020-01-07 01:00:00 -4.4 0 Calma 2 Este 0 -- -- 97
2020-01-07 00:00:00 -3.8 2 Nordeste 4 Este 0 -- -- 98
2020-01-06 23:00:00 -3.2 0 Calma 6 Nordeste 0 -- -- 98
2020-01-06 22:00:00 -2.5 3 Nordeste 5 Nordeste 0 -- -- 98
2020-01-06 21:00:00 -2 0 Calma 8 Este 0 -- -- 97
2020-01-06 20:00:00 -1.2 0 Calma 5 Oeste 0 -- -- 97
2020-01-06 19:00:00 -1 0 Calma 6 Este 0 -- -- 97
2020-01-06 18:00:00 -0.5 2 Oeste 6 Oeste 0 -- -- 96
2020-01-06 17:00:00 -0.2 3 Sudoeste 6 Oeste 0 -- -- 97
2020-01-06 16:00:00 -0.3 4 Sudoeste 12 Sudoeste 0 -- -- 97
2020-01-06 15:00:00 -0.2 5 Oeste 13 Oeste 0 -- -- 97
2020-01-06 14:00:00 -0.3 6 Sudoeste 14 Sudoeste 0 -- -- 98
2020-01-06 13:00:00 -1 4 Sur 10 Sur 0 -- -- 98
2020-01-06 12:00:00 -2.7 5 Sudoeste 9 Oeste 0 -- -- 97
2020-01-06 11:00:00 -3.6 0 Calma 0 Calma 0 -- -- 97
2020-01-06 10:00:00 -5.2 0 Calma -- -- 0 -- -- 96